sensor_id;sensor_type;location;lat;lon;timestamp;temperature;humidity
55121;DHT22;41019;48.512;9.036;2023-05-29T00:00:21;13.80;93.10
55121;DHT22;41019;48.512;9.036;2023-05-29T00:02:49;13.80;93.00
55121;DHT22;41019;48.512;9.036;2023-05-29T00:05:17;13.70;92.90
55121;DHT22;41019;48.512;9.036;2023-05-29T00:07:43;13.70;93.50
55121;DHT22;41019;48.512;9.036;2023-05-29T00:10:11;13.60;93.70
55121;DHT22;41019;48.512;9.036;2023-05-29T00:12:38;13.60;93.90
55121;DHT22;41019;48.512;9.036;2023-05-29T00:15:05;13.60;94.00
55121;DHT22;41019;48.512;9.036;2023-05-29T00:17:32;13.50;94.40
55121;DHT22;41019;48.512;9.036;2023-05-29T00:20:02;13.50;94.70
55121;DHT22;41019;48.512;9.036;2023-05-29T00:22:35;13.40;94.80
55121;DHT22;41019;48.512;9.036;2023-05-29T00:25:07;13.40;94.60
55121;DHT22;41019;48.512;9.036;2023-05-29T00:27:34;13.40;94.60
55121;DHT22;41019;48.512;9.036;2023-05-29T00:30:01;13.30;94.60
55121;DHT22;41019;48.512;9.036;2023-05-29T00:32:29;13.30;94.90
55121;DHT22;41019;48.512;9.036;2023-05-29T00:34:55;13.20;94.70
55121;DHT22;41019;48.512;9.036;2023-05-29T00:37:22;13.20;94.60
55121;DHT22;41019;48.512;9.036;2023-05-29T00:39:49;13.20;94.60
55121;DHT22;41019;48.512;9.036;2023-05-29T00:42:15;13.10;94.50
55121;DHT22;41019;48.512;9.036;2023-05-29T00:44:40;13.10;94.70
55121;DHT22;41019;48.512;9.036;2023-05-29T00:47:07;13.10;94.80
55121;DHT22;41019;48.512;9.036;2023-05-29T00:49:36;13.00;95.00
55121;DHT22;41019;48.512;9.036;2023-05-29T00:52:03;13.00;95.00
55121;DHT22;41019;48.512;9.036;2023-05-29T00:54:32;12.90;95.10
55121;DHT22;41019;48.512;9.036;2023-05-29T00:56:59;12.90;95.00
55121;DHT22;41019;48.512;9.036;2023-05-29T00:59:30;12.80;94.90
55121;DHT22;41019;48.512;9.036;2023-05-29T01:01:57;12.80;95.00
55121;DHT22;41019;48.512;9.036;2023-05-29T01:04:26;12.70;95.40
55121;DHT22;41019;48.512;9.036;2023-05-29T01:06:53;12.70;95.60
55121;DHT22;41019;48.512;9.036;2023-05-29T01:09:19;12.70;95.50
55121;DHT22;41019;48.512;9.036;2023-05-29T01:14:48;12.60;95.50
55121;DHT22;41019;48.512;9.036;2023-05-29T01:20:12;12.50;95.40
55121;DHT22;41019;48.512;9.036;2023-05-29T01:22:58;12.50;95.50
55121;DHT22;41019;48.512;9.036;2023-05-29T01:25:45;12.50;95.50
55121;DHT22;41019;48.512;9.036;2023-05-29T01:28:13;12.40;95.70
55121;DHT22;41019;48.512;9.036;2023-05-29T01:30:43;12.40;95.60
55121;DHT22;41019;48.512;9.036;2023-05-29T01:33:09;12.40;95.50
55121;DHT22;41019;48.512;9.036;2023-05-29T01:35:35;12.30;95.60
55121;DHT22;41019;48.512;9.036;2023-05-29T01:38:01;12.30;95.80
55121;DHT22;41019;48.512;9.036;2023-05-29T01:40:27;12.30;95.60
55121;DHT22;41019;48.512;9.036;2023-05-29T01:42:53;12.30;95.40
55121;DHT22;41019;48.512;9.036;2023-05-29T01:45:20;12.20;95.50
55121;DHT22;41019;48.512;9.036;2023-05-29T01:47:46;12.20;95.60
55121;DHT22;41019;48.512;9.036;2023-05-29T01:50:15;12.20;95.70
55121;DHT22;41019;48.512;9.036;2023-05-29T01:52:43;12.20;95.80
55121;DHT22;41019;48.512;9.036;2023-05-29T01:55:09;12.10;96.00
55121;DHT22;41019;48.512;9.036;2023-05-29T01:57:37;12.10;96.10
55121;DHT22;41019;48.512;9.036;2023-05-29T02:00:04;12.00;96.20
55121;DHT22;41019;48.512;9.036;2023-05-29T02:02:40;11.90;96.10
55121;DHT22;41019;48.512;9.036;2023-05-29T02:05:07;11.90;96.00
55121;DHT22;41019;48.512;9.036;2023-05-29T02:07:34;11.90;95.90
55121;DHT22;41019;48.512;9.036;2023-05-29T02:10:06;11.80;96.20
55121;DHT22;41019;48.512;9.036;2023-05-29T02:12:32;11.80;96.20
55121;DHT22;41019;48.512;9.036;2023-05-29T02:14:58;11.80;96.50
55121;DHT22;41019;48.512;9.036;2023-05-29T02:17:26;11.70;96.60
55121;DHT22;41019;48.512;9.036;2023-05-29T02:19:52;11.70;96.60
55121;DHT22;41019;48.512;9.036;2023-05-29T02:22:18;11.60;96.50
55121;DHT22;41019;48.512;9.036;2023-05-29T02:24:44;11.60;96.40
55121;DHT22;41019;48.512;9.036;2023-05-29T02:27:10;11.60;96.30
55121;DHT22;41019;48.512;9.036;2023-05-29T02:29:36;11.50;96.20
55121;DHT22;41019;48.512;9.036;2023-05-29T02:32:02;11.50;96.30
55121;DHT22;41019;48.512;9.036;2023-05-29T02:34:28;11.50;96.30
55121;DHT22;41019;48.512;9.036;2023-05-29T02:36:54;11.50;96.40
55121;DHT22;41019;48.512;9.036;2023-05-29T02:39:20;11.50;96.60
55121;DHT22;41019;48.512;9.036;2023-05-29T02:41:46;11.40;96.60
55121;DHT22;41019;48.512;9.036;2023-05-29T02:44:12;11.40;96.60
55121;DHT22;41019;48.512;9.036;2023-05-29T02:46:38;11.40;96.80
55121;DHT22;41019;48.512;9.036;2023-05-29T02:49:04;11.40;96.70
55121;DHT22;41019;48.512;9.036;2023-05-29T02:51:30;11.30;96.80
55121;DHT22;41019;48.512;9.036;2023-05-29T02:53:58;11.30;96.60
55121;DHT22;41019;48.512;9.036;2023-05-29T02:56:24;11.30;96.60
55121;DHT22;41019;48.512;9.036;2023-05-29T02:58:50;11.20;96.70
55121;DHT22;41019;48.512;9.036;2023-05-29T03:01:17;11.30;96.70
55121;DHT22;41019;48.512;9.036;2023-05-29T03:03:43;11.30;96.80
55121;DHT22;41019;48.512;9.036;2023-05-29T03:06:09;11.30;96.90
55121;DHT22;41019;48.512;9.036;2023-05-29T03:08:39;11.30;96.90
55121;DHT22;41019;48.512;9.036;2023-05-29T03:11:07;11.20;96.80
55121;DHT22;41019;48.512;9.036;2023-05-29T03:13:37;11.20;96.70
55121;DHT22;41019;48.512;9.036;2023-05-29T03:16:05;11.20;96.80
55121;DHT22;41019;48.512;9.036;2023-05-29T03:18:31;11.20;96.90
55121;DHT22;41019;48.512;9.036;2023-05-29T03:20:58;11.10;97.10
55121;DHT22;41019;48.512;9.036;2023-05-29T03:23:24;11.10;96.90
55121;DHT22;41019;48.512;9.036;2023-05-29T03:25:51;11.10;97.30
55121;DHT22;41019;48.512;9.036;2023-05-29T03:28:17;11.10;97.30
55121;DHT22;41019;48.512;9.036;2023-05-29T03:30:43;11.10;97.20
55121;DHT22;41019;48.512;9.036;2023-05-29T03:33:12;11.10;97.00
55121;DHT22;41019;48.512;9.036;2023-05-29T03:36:02;11.00;97.10
55121;DHT22;41019;48.512;9.036;2023-05-29T03:38:28;11.00;97.00
55121;DHT22;41019;48.512;9.036;2023-05-29T03:40:57;11.00;96.80
55121;DHT22;41019;48.512;9.036;2023-05-29T03:43:23;10.90;96.90
55121;DHT22;41019;48.512;9.036;2023-05-29T03:45:49;10.90;96.80
55121;DHT22;41019;48.512;9.036;2023-05-29T03:48:15;10.90;96.90
55121;DHT22;41019;48.512;9.036;2023-05-29T03:50:45;10.90;97.10
55121;DHT22;41019;48.512;9.036;2023-05-29T03:53:11;10.90;97.20
55121;DHT22;41019;48.512;9.036;2023-05-29T03:55:37;10.80;97.20
55121;DHT22;41019;48.512;9.036;2023-05-29T03:58:04;10.80;97.40
55121;DHT22;41019;48.512;9.036;2023-05-29T04:00:30;10.80;97.40
55121;DHT22;41019;48.512;9.036;2023-05-29T04:03:00;10.80;97.30
55121;DHT22;41019;48.512;9.036;2023-05-29T04:05:26;10.80;97.30
55121;DHT22;41019;48.512;9.036;2023-05-29T04:07:52;10.70;97.20
55121;DHT22;41019;48.512;9.036;2023-05-29T04:10:18;10.80;97.30
55121;DHT22;41019;48.512;9.036;2023-05-29T04:12:44;10.70;97.30
55121;DHT22;41019;48.512;9.036;2023-05-29T04:15:10;10.80;97.50
55121;DHT22;41019;48.512;9.036;2023-05-29T04:17:36;10.70;97.20
55121;DHT22;41019;48.512;9.036;2023-05-29T04:20:02;10.70;97.30
55121;DHT22;41019;48.512;9.036;2023-05-29T04:22:35;10.70;97.50
55121;DHT22;41019;48.512;9.036;2023-05-29T04:25:03;10.70;97.20
55121;DHT22;41019;48.512;9.036;2023-05-29T04:27:30;10.70;97.20
55121;DHT22;41019;48.512;9.036;2023-05-29T04:29:59;10.70;97.30
55121;DHT22;41019;48.512;9.036;2023-05-29T04:32:31;10.80;97.70
55121;DHT22;41019;48.512;9.036;2023-05-29T04:34:59;10.80;97.60
55121;DHT22;41019;48.512;9.036;2023-05-29T04:37:31;10.80;97.70
55121;DHT22;41019;48.512;9.036;2023-05-29T04:40:08;10.80;98.00
55121;DHT22;41019;48.512;9.036;2023-05-29T04:42:38;10.90;97.70
55121;DHT22;41019;48.512;9.036;2023-05-29T04:45:07;11.00;97.80
55121;DHT22;41019;48.512;9.036;2023-05-29T04:47:36;11.00;98.00
55121;DHT22;41019;48.512;9.036;2023-05-29T04:50:11;11.10;98.20
55121;DHT22;41019;48.512;9.036;2023-05-29T04:52:37;11.10;98.00
55121;DHT22;41019;48.512;9.036;2023-05-29T04:55:06;11.20;97.90
55121;DHT22;41019;48.512;9.036;2023-05-29T04:57:31;11.20;98.00
55121;DHT22;41019;48.512;9.036;2023-05-29T04:59:57;11.20;98.10
55121;DHT22;41019;48.512;9.036;2023-05-29T05:02:23;11.30;98.10
55121;DHT22;41019;48.512;9.036;2023-05-29T05:04:49;11.30;97.80
55121;DHT22;41019;48.512;9.036;2023-05-29T05:07:16;11.30;98.00
55121;DHT22;41019;48.512;9.036;2023-05-29T05:09:42;11.40;97.80
55121;DHT22;41019;48.512;9.036;2023-05-29T05:12:14;11.40;97.90
55121;DHT22;41019;48.512;9.036;2023-05-29T05:14:40;11.50;97.70
55121;DHT22;41019;48.512;9.036;2023-05-29T05:17:05;11.60;97.60
55121;DHT22;41019;48.512;9.036;2023-05-29T05:19:31;11.60;97.50
55121;DHT22;41019;48.512;9.036;2023-05-29T05:21:57;11.70;97.40
55121;DHT22;41019;48.512;9.036;2023-05-29T05:24:26;11.80;97.20
55121;DHT22;41019;48.512;9.036;2023-05-29T05:26:52;11.80;97.20
55121;DHT22;41019;48.512;9.036;2023-05-29T05:29:18;11.90;97.10
55121;DHT22;41019;48.512;9.036;2023-05-29T05:31:45;12.00;97.00
55121;DHT22;41019;48.512;9.036;2023-05-29T05:34:11;12.00;96.80
55121;DHT22;41019;48.512;9.036;2023-05-29T05:36:36;12.10;96.80
55121;DHT22;41019;48.512;9.036;2023-05-29T05:39:08;12.20;96.90
55121;DHT22;41019;48.512;9.036;2023-05-29T05:41:35;12.20;96.70
55121;DHT22;41019;48.512;9.036;2023-05-29T05:44:01;12.30;96.50
55121;DHT22;41019;48.512;9.036;2023-05-29T05:46:49;12.30;96.70
55121;DHT22;41019;48.512;9.036;2023-05-29T05:49:16;12.40;96.60
55121;DHT22;41019;48.512;9.036;2023-05-29T05:51:42;12.40;96.60
55121;DHT22;41019;48.512;9.036;2023-05-29T05:54:08;12.50;96.70
55121;DHT22;41019;48.512;9.036;2023-05-29T05:56:35;12.60;96.80
55121;DHT22;41019;48.512;9.036;2023-05-29T05:59:01;12.70;96.80
55121;DHT22;41019;48.512;9.036;2023-05-29T06:01:27;12.80;96.60
55121;DHT22;41019;48.512;9.036;2023-05-29T06:03:52;12.80;96.60
55121;DHT22;41019;48.512;9.036;2023-05-29T06:06:19;12.90;96.50
55121;DHT22;41019;48.512;9.036;2023-05-29T06:08:47;13.10;96.30
55121;DHT22;41019;48.512;9.036;2023-05-29T06:11:14;13.10;96.20
55121;DHT22;41019;48.512;9.036;2023-05-29T06:13:43;13.30;96.40
55121;DHT22;41019;48.512;9.036;2023-05-29T06:16:15;13.40;96.10
55121;DHT22;41019;48.512;9.036;2023-05-29T06:18:41;13.50;95.80
55121;DHT22;41019;48.512;9.036;2023-05-29T06:21:07;13.60;95.70
55121;DHT22;41019;48.512;9.036;2023-05-29T06:23:38;13.70;95.40
55121;DHT22;41019;48.512;9.036;2023-05-29T06:26:04;13.80;95.30
55121;DHT22;41019;48.512;9.036;2023-05-29T06:28:30;13.90;94.90
55121;DHT22;41019;48.512;9.036;2023-05-29T06:30:56;14.10;95.00
55121;DHT22;41019;48.512;9.036;2023-05-29T06:33:23;14.30;94.40
55121;DHT22;41019;48.512;9.036;2023-05-29T06:35:50;14.50;94.30
55121;DHT22;41019;48.512;9.036;2023-05-29T06:38:16;14.70;94.10
55121;DHT22;41019;48.512;9.036;2023-05-29T06:40:42;14.90;93.50
55121;DHT22;41019;48.512;9.036;2023-05-29T06:43:08;15.10;93.60
55121;DHT22;41019;48.512;9.036;2023-05-29T06:45:39;15.30;93.10
55121;DHT22;41019;48.512;9.036;2023-05-29T06:48:06;15.50;92.70
55121;DHT22;41019;48.512;9.036;2023-05-29T06:50:32;15.70;92.00
55121;DHT22;41019;48.512;9.036;2023-05-29T06:53:12;15.90;91.40
55121;DHT22;41019;48.512;9.036;2023-05-29T06:55:47;16.20;91.10
55121;DHT22;41019;48.512;9.036;2023-05-29T06:58:14;16.40;90.60
55121;DHT22;41019;48.512;9.036;2023-05-29T07:00:41;16.60;90.30
55121;DHT22;41019;48.512;9.036;2023-05-29T07:03:30;16.80;90.10
55121;DHT22;41019;48.512;9.036;2023-05-29T07:05:56;17.10;88.50
55121;DHT22;41019;48.512;9.036;2023-05-29T07:08:23;17.30;87.30
55121;DHT22;41019;48.512;9.036;2023-05-29T07:10:50;17.50;86.50
55121;DHT22;41019;48.512;9.036;2023-05-29T07:13:17;17.80;85.70
55121;DHT22;41019;48.512;9.036;2023-05-29T07:15:44;18.00;85.60
55121;DHT22;41019;48.512;9.036;2023-05-29T07:18:12;18.20;84.60
55121;DHT22;41019;48.512;9.036;2023-05-29T07:20:38;18.40;84.50
55121;DHT22;41019;48.512;9.036;2023-05-29T07:23:04;18.60;80.80
55121;DHT22;41019;48.512;9.036;2023-05-29T07:25:31;18.80;81.20
55121;DHT22;41019;48.512;9.036;2023-05-29T07:27:59;19.10;80.90
55121;DHT22;41019;48.512;9.036;2023-05-29T07:30:25;19.30;78.80
55121;DHT22;41019;48.512;9.036;2023-05-29T07:32:58;19.50;78.60
55121;DHT22;41019;48.512;9.036;2023-05-29T07:35:24;19.80;77.20
55121;DHT22;41019;48.512;9.036;2023-05-29T07:37:50;20.00;75.90
55121;DHT22;41019;48.512;9.036;2023-05-29T07:40:18;20.20;75.50
55121;DHT22;41019;48.512;9.036;2023-05-29T07:43:09;20.50;76.50
55121;DHT22;41019;48.512;9.036;2023-05-29T07:45:45;20.80;75.00
55121;DHT22;41019;48.512;9.036;2023-05-29T07:48:11;21.10;75.70
55121;DHT22;41019;48.512;9.036;2023-05-29T07:50:37;21.20;73.40
55121;DHT22;41019;48.512;9.036;2023-05-29T07:53:04;21.40;73.30
55121;DHT22;41019;48.512;9.036;2023-05-29T07:55:34;21.70;74.70
55121;DHT22;41019;48.512;9.036;2023-05-29T07:58:01;21.90;73.50
55121;DHT22;41019;48.512;9.036;2023-05-29T08:00:28;22.20;71.40
55121;DHT22;41019;48.512;9.036;2023-05-29T08:02:54;22.40;70.90
55121;DHT22;41019;48.512;9.036;2023-05-29T08:05:46;22.60;71.40
55121;DHT22;41019;48.512;9.036;2023-05-29T08:08:13;22.90;68.70
55121;DHT22;41019;48.512;9.036;2023-05-29T08:10:40;23.00;68.30
55121;DHT22;41019;48.512;9.036;2023-05-29T08:13:05;23.20;67.20
55121;DHT22;41019;48.512;9.036;2023-05-29T08:15:33;23.50;69.00
55121;DHT22;41019;48.512;9.036;2023-05-29T08:18:00;23.60;65.90
55121;DHT22;41019;48.512;9.036;2023-05-29T08:20:26;23.80;66.40
55121;DHT22;41019;48.512;9.036;2023-05-29T08:22:52;24.00;66.60
55121;DHT22;41019;48.512;9.036;2023-05-29T08:25:21;24.20;66.20
55121;DHT22;41019;48.512;9.036;2023-05-29T08:27:47;24.30;65.20
55121;DHT22;41019;48.512;9.036;2023-05-29T08:30:13;24.30;63.20
55121;DHT22;41019;48.512;9.036;2023-05-29T08:32:38;24.60;63.10
55121;DHT22;41019;48.512;9.036;2023-05-29T08:35:04;24.60;62.70
55121;DHT22;41019;48.512;9.036;2023-05-29T08:37:30;24.80;59.70
55121;DHT22;41019;48.512;9.036;2023-05-29T08:39:56;24.90;57.70
55121;DHT22;41019;48.512;9.036;2023-05-29T08:42:29;24.90;57.10
55121;DHT22;41019;48.512;9.036;2023-05-29T08:45:03;24.80;58.10
55121;DHT22;41019;48.512;9.036;2023-05-29T08:47:33;24.90;57.70
55121;DHT22;41019;48.512;9.036;2023-05-29T08:50:01;25.20;56.60
55121;DHT22;41019;48.512;9.036;2023-05-29T08:52:32;25.20;56.30
55121;DHT22;41019;48.512;9.036;2023-05-29T08:55:01;25.50;58.60
55121;DHT22;41019;48.512;9.036;2023-05-29T08:57:29;25.60;56.00
55121;DHT22;41019;48.512;9.036;2023-05-29T08:59:56;25.50;54.70
55121;DHT22;41019;48.512;9.036;2023-05-29T09:02:22;25.90;55.20
55121;DHT22;41019;48.512;9.036;2023-05-29T09:04:48;26.20;56.80
55121;DHT22;41019;48.512;9.036;2023-05-29T09:07:17;26.20;54.70
55121;DHT22;41019;48.512;9.036;2023-05-29T09:09:45;26.40;53.70
55121;DHT22;41019;48.512;9.036;2023-05-29T09:12:11;26.60;53.30
55121;DHT22;41019;48.512;9.036;2023-05-29T09:14:44;26.80;53.10
55121;DHT22;41019;48.512;9.036;2023-05-29T09:17:11;27.00;54.20
55121;DHT22;41019;48.512;9.036;2023-05-29T09:19:38;27.20;52.70
55121;DHT22;41019;48.512;9.036;2023-05-29T09:22:09;27.20;50.80
55121;DHT22;41019;48.512;9.036;2023-05-29T09:24:37;27.20;51.20
55121;DHT22;41019;48.512;9.036;2023-05-29T09:27:06;27.30;50.50
55121;DHT22;41019;48.512;9.036;2023-05-29T09:29:39;27.40;50.80
55121;DHT22;41019;48.512;9.036;2023-05-29T09:32:16;27.30;49.20
55121;DHT22;41019;48.512;9.036;2023-05-29T09:34:43;27.20;48.90
55121;DHT22;41019;48.512;9.036;2023-05-29T09:37:11;27.20;48.60
55121;DHT22;41019;48.512;9.036;2023-05-29T09:39:51;27.10;49.90
55121;DHT22;41019;48.512;9.036;2023-05-29T09:42:20;27.00;47.90
55121;DHT22;41019;48.512;9.036;2023-05-29T09:44:49;26.90;47.80
55121;DHT22;41019;48.512;9.036;2023-05-29T09:47:18;26.90;48.80
55121;DHT22;41019;48.512;9.036;2023-05-29T09:49:45;27.20;49.90
55121;DHT22;41019;48.512;9.036;2023-05-29T09:52:13;27.10;46.10
55121;DHT22;41019;48.512;9.036;2023-05-29T09:54:43;27.30;48.10
55121;DHT22;41019;48.512;9.036;2023-05-29T09:57:13;27.50;47.60
55121;DHT22;41019;48.512;9.036;2023-05-29T09:59:43;27.70;49.10
55121;DHT22;41019;48.512;9.036;2023-05-29T10:02:11;28.00;47.20
55121;DHT22;41019;48.512;9.036;2023-05-29T10:04:39;28.10;46.70
55121;DHT22;41019;48.512;9.036;2023-05-29T10:07:26;27.90;45.70
55121;DHT22;41019;48.512;9.036;2023-05-29T10:10:03;28.00;46.30
55121;DHT22;41019;48.512;9.036;2023-05-29T10:12:37;27.80;45.70
55121;DHT22;41019;48.512;9.036;2023-05-29T10:15:17;27.50;45.90
55121;DHT22;41019;48.512;9.036;2023-05-29T10:18:03;27.70;46.00
55121;DHT22;41019;48.512;9.036;2023-05-29T10:20:31;27.80;47.50
55121;DHT22;41019;48.512;9.036;2023-05-29T10:23:00;28.20;47.60
55121;DHT22;41019;48.512;9.036;2023-05-29T10:25:31;28.40;46.10
55121;DHT22;41019;48.512;9.036;2023-05-29T10:27:58;28.60;45.70
55121;DHT22;41019;48.512;9.036;2023-05-29T10:31:13;28.70;44.70
55121;DHT22;41019;48.512;9.036;2023-05-29T10:36:30;28.60;44.00
55121;DHT22;41019;48.512;9.036;2023-05-29T10:38:58;28.60;43.60
55121;DHT22;41019;48.512;9.036;2023-05-29T10:44:01;28.40;42.70
55121;DHT22;41019;48.512;9.036;2023-05-29T10:49:21;28.50;42.90
55121;DHT22;41019;48.512;9.036;2023-05-29T10:51:48;28.40;42.00
55121;DHT22;41019;48.512;9.036;2023-05-29T10:54:14;28.50;43.10
55121;DHT22;41019;48.512;9.036;2023-05-29T10:56:40;28.70;43.00
55121;DHT22;41019;48.512;9.036;2023-05-29T10:59:09;28.70;41.50
55121;DHT22;41019;48.512;9.036;2023-05-29T11:01:38;28.70;41.60
55121;DHT22;41019;48.512;9.036;2023-05-29T11:06:46;28.80;41.30
55121;DHT22;41019;48.512;9.036;2023-05-29T11:09:33;29.00;42.30
55121;DHT22;41019;48.512;9.036;2023-05-29T11:12:29;28.80;41.50
55121;DHT22;41019;48.512;9.036;2023-05-29T11:15:07;29.20;41.40
55121;DHT22;41019;48.512;9.036;2023-05-29T11:20:17;29.50;39.50
55121;DHT22;41019;48.512;9.036;2023-05-29T11:25:27;29.50;41.10
55121;DHT22;41019;48.512;9.036;2023-05-29T11:27:53;29.40;41.50
55121;DHT22;41019;48.512;9.036;2023-05-29T11:30:20;29.40;39.60
55121;DHT22;41019;48.512;9.036;2023-05-29T11:32:48;29.50;39.90
55121;DHT22;41019;48.512;9.036;2023-05-29T11:35:14;29.70;39.40
55121;DHT22;41019;48.512;9.036;2023-05-29T11:37:44;29.80;39.60
55121;DHT22;41019;48.512;9.036;2023-05-29T11:40:15;29.70;39.80
55121;DHT22;41019;48.512;9.036;2023-05-29T11:42:45;29.70;38.80
55121;DHT22;41019;48.512;9.036;2023-05-29T11:45:17;29.70;36.80
55121;DHT22;41019;48.512;9.036;2023-05-29T11:48:10;29.60;37.80
55121;DHT22;41019;48.512;9.036;2023-05-29T11:50:36;29.90;36.80
55121;DHT22;41019;48.512;9.036;2023-05-29T11:53:02;29.60;36.40
55121;DHT22;41019;48.512;9.036;2023-05-29T11:55:29;29.50;36.20
55121;DHT22;41019;48.512;9.036;2023-05-29T11:58:03;29.50;37.10
55121;DHT22;41019;48.512;9.036;2023-05-29T12:00:34;29.60;37.10
55121;DHT22;41019;48.512;9.036;2023-05-29T12:03:02;29.80;37.30
55121;DHT22;41019;48.512;9.036;2023-05-29T12:05:33;29.80;37.10
55121;DHT22;41019;48.512;9.036;2023-05-29T12:08:09;29.80;37.30
55121;DHT22;41019;48.512;9.036;2023-05-29T12:10:35;29.80;37.10
55121;DHT22;41019;48.512;9.036;2023-05-29T12:13:02;29.50;36.20
55121;DHT22;41019;48.512;9.036;2023-05-29T12:15:27;29.70;38.50
55121;DHT22;41019;48.512;9.036;2023-05-29T12:17:55;30.00;38.60
55121;DHT22;41019;48.512;9.036;2023-05-29T12:20:25;29.90;36.80
55121;DHT22;41019;48.512;9.036;2023-05-29T12:23:01;30.00;37.80
55121;DHT22;41019;48.512;9.036;2023-05-29T12:25:27;30.10;38.50
55121;DHT22;41019;48.512;9.036;2023-05-29T12:27:56;29.80;36.70
55121;DHT22;41019;48.512;9.036;2023-05-29T12:30:24;30.00;37.10
55121;DHT22;41019;48.512;9.036;2023-05-29T12:32:52;29.80;36.10
55121;DHT22;41019;48.512;9.036;2023-05-29T12:35:19;29.80;36.30
55121;DHT22;41019;48.512;9.036;2023-05-29T12:38:02;29.90;36.80
55121;DHT22;41019;48.512;9.036;2023-05-29T12:40:32;30.20;37.60
55121;DHT22;41019;48.512;9.036;2023-05-29T12:43:05;30.30;37.30
55121;DHT22;41019;48.512;9.036;2023-05-29T12:45:33;30.30;38.00
55121;DHT22;41019;48.512;9.036;2023-05-29T12:48:01;30.30;38.10
55121;DHT22;41019;48.512;9.036;2023-05-29T12:50:30;30.50;38.00
55121;DHT22;41019;48.512;9.036;2023-05-29T12:53:01;30.50;38.80
55121;DHT22;41019;48.512;9.036;2023-05-29T12:55:29;30.30;37.00
55121;DHT22;41019;48.512;9.036;2023-05-29T12:57:55;30.00;37.20
55121;DHT22;41019;48.512;9.036;2023-05-29T13:00:22;30.00;38.20
55121;DHT22;41019;48.512;9.036;2023-05-29T13:02:49;29.80;37.30
55121;DHT22;41019;48.512;9.036;2023-05-29T13:05:16;30.00;37.90
55121;DHT22;41019;48.512;9.036;2023-05-29T13:07:48;30.10;37.30
55121;DHT22;41019;48.512;9.036;2023-05-29T13:10:14;29.80;37.20
55121;DHT22;41019;48.512;9.036;2023-05-29T13:12:41;29.60;36.50
55121;DHT22;41019;48.512;9.036;2023-05-29T13:15:09;29.60;36.20
55121;DHT22;41019;48.512;9.036;2023-05-29T13:17:35;29.70;37.50
55121;DHT22;41019;48.512;9.036;2023-05-29T13:20:01;29.70;37.20
55121;DHT22;41019;48.512;9.036;2023-05-29T13:22:27;29.80;37.50
55121;DHT22;41019;48.512;9.036;2023-05-29T13:24:59;29.90;36.40
55121;DHT22;41019;48.512;9.036;2023-05-29T13:27:25;29.70;36.60
55121;DHT22;41019;48.512;9.036;2023-05-29T13:29:51;30.00;37.00
55121;DHT22;41019;48.512;9.036;2023-05-29T13:32:17;29.90;36.40
55121;DHT22;41019;48.512;9.036;2023-05-29T13:34:43;29.80;36.70
55121;DHT22;41019;48.512;9.036;2023-05-29T13:37:09;30.00;36.40
55121;DHT22;41019;48.512;9.036;2023-05-29T13:39:35;29.70;36.30
55121;DHT22;41019;48.512;9.036;2023-05-29T13:42:01;29.80;35.90
55121;DHT22;41019;48.512;9.036;2023-05-29T13:44:26;29.80;35.80
55121;DHT22;41019;48.512;9.036;2023-05-29T13:46:52;30.00;35.70
55121;DHT22;41019;48.512;9.036;2023-05-29T13:49:19;30.10;35.80
55121;DHT22;41019;48.512;9.036;2023-05-29T13:51:45;30.10;32.70
55121;DHT22;41019;48.512;9.036;2023-05-29T13:54:13;30.00;33.40
55121;DHT22;41019;48.512;9.036;2023-05-29T13:56:39;30.00;31.40
55121;DHT22;41019;48.512;9.036;2023-05-29T13:59:05;29.80;31.80
55121;DHT22;41019;48.512;9.036;2023-05-29T14:01:34;29.80;34.40
55121;DHT22;41019;48.512;9.036;2023-05-29T14:04:00;30.00;34.70
55121;DHT22;41019;48.512;9.036;2023-05-29T14:06:26;30.10;34.30
55121;DHT22;41019;48.512;9.036;2023-05-29T14:08:52;30.00;34.50
55121;DHT22;41019;48.512;9.036;2023-05-29T14:11:19;30.20;35.00
55121;DHT22;41019;48.512;9.036;2023-05-29T14:13:45;30.10;33.70
55121;DHT22;41019;48.512;9.036;2023-05-29T14:16:11;30.00;33.50
55121;DHT22;41019;48.512;9.036;2023-05-29T14:18:37;30.00;33.90
55121;DHT22;41019;48.512;9.036;2023-05-29T14:21:03;29.90;33.90
55121;DHT22;41019;48.512;9.036;2023-05-29T14:23:28;29.70;33.20
55121;DHT22;41019;48.512;9.036;2023-05-29T14:25:54;29.80;33.60
55121;DHT22;41019;48.512;9.036;2023-05-29T14:28:20;29.30;31.80
55121;DHT22;41019;48.512;9.036;2023-05-29T14:30:46;29.00;31.90
55121;DHT22;41019;48.512;9.036;2023-05-29T14:33:12;29.20;32.90
55121;DHT22;41019;48.512;9.036;2023-05-29T14:35:38;29.20;33.90
55121;DHT22;41019;48.512;9.036;2023-05-29T14:38:04;29.20;33.30
55121;DHT22;41019;48.512;9.036;2023-05-29T14:40:29;29.30;33.60
55121;DHT22;41019;48.512;9.036;2023-05-29T14:42:56;29.00;33.10
55121;DHT22;41019;48.512;9.036;2023-05-29T14:45:22;28.90;34.30
55121;DHT22;41019;48.512;9.036;2023-05-29T14:47:48;28.80;34.00
55121;DHT22;41019;48.512;9.036;2023-05-29T14:50:14;28.70;34.40
55121;DHT22;41019;48.512;9.036;2023-05-29T14:52:41;28.50;32.90
55121;DHT22;41019;48.512;9.036;2023-05-29T14:55:07;28.50;33.60
55121;DHT22;41019;48.512;9.036;2023-05-29T14:57:33;28.70;34.00
55121;DHT22;41019;48.512;9.036;2023-05-29T15:00:01;28.70;33.10
55121;DHT22;41019;48.512;9.036;2023-05-29T15:02:26;28.60;32.50
55121;DHT22;41019;48.512;9.036;2023-05-29T15:04:52;28.70;33.30
55121;DHT22;41019;48.512;9.036;2023-05-29T15:07:18;28.70;32.80
55121;DHT22;41019;48.512;9.036;2023-05-29T15:09:44;28.80;34.40
55121;DHT22;41019;48.512;9.036;2023-05-29T15:12:10;28.60;34.50
55121;DHT22;41019;48.512;9.036;2023-05-29T15:14:36;28.70;33.60
55121;DHT22;41019;48.512;9.036;2023-05-29T15:17:03;28.50;34.70
55121;DHT22;41019;48.512;9.036;2023-05-29T15:19:30;28.50;33.50
55121;DHT22;41019;48.512;9.036;2023-05-29T15:21:57;28.50;34.00
55121;DHT22;41019;48.512;9.036;2023-05-29T15:24:23;28.40;33.60
55121;DHT22;41019;48.512;9.036;2023-05-29T15:26:49;28.60;34.40
55121;DHT22;41019;48.512;9.036;2023-05-29T15:29:16;28.50;33.60
55121;DHT22;41019;48.512;9.036;2023-05-29T15:31:42;28.60;34.10
55121;DHT22;41019;48.512;9.036;2023-05-29T15:34:08;28.40;32.70
55121;DHT22;41019;48.512;9.036;2023-05-29T15:36:34;28.30;33.30
55121;DHT22;41019;48.512;9.036;2023-05-29T15:39:02;28.30;33.30
55121;DHT22;41019;48.512;9.036;2023-05-29T15:41:29;28.20;33.80
55121;DHT22;41019;48.512;9.036;2023-05-29T15:43:57;28.20;34.50
55121;DHT22;41019;48.512;9.036;2023-05-29T15:46:27;28.00;33.60
55121;DHT22;41019;48.512;9.036;2023-05-29T15:48:54;28.10;34.40
55121;DHT22;41019;48.512;9.036;2023-05-29T15:51:20;28.00;32.90
55121;DHT22;41019;48.512;9.036;2023-05-29T15:53:46;27.90;32.80
55121;DHT22;41019;48.512;9.036;2023-05-29T15:56:12;27.80;32.90
55121;DHT22;41019;48.512;9.036;2023-05-29T15:58:37;27.80;32.90